createdAt,value
2022-08-29T00:00:30.455Z,1091.73
2022-08-29T00:03:02.277Z,1098.00
2022-08-29T00:05:40.027Z,1088.40
2022-08-29T00:08:11.794Z,1093.03
2022-08-29T00:10:42.757Z,1089.73
2022-08-29T00:13:14.192Z,1086.87
2022-08-29T00:15:45.499Z,1090.27
2022-08-29T00:18:16.904Z,1089.77
2022-08-29T00:20:47.622Z,1089.50
2022-08-29T00:23:17.429Z,1089.57
2022-08-29T00:25:47.153Z,1088.87
2022-08-29T00:28:17.309Z,1091.50
2022-08-29T00:30:47.410Z,1086.23
2022-08-29T00:33:17.445Z,1092.70
2022-08-29T00:35:48.391Z,1085.27
2022-08-29T00:38:19.903Z,1089.57
2022-08-29T00:40:55.460Z,1083.37
2022-08-29T00:43:28.994Z,1089.30
2022-08-29T00:45:58.644Z,1088.33
2022-08-29T00:48:28.702Z,1084.50
2022-08-29T00:51:04.466Z,1089.07
2022-08-29T00:53:39.853Z,1089.17
2022-08-29T00:56:12.863Z,1092.27
2022-08-29T00:58:50.507Z,1088.80
2022-08-29T01:01:21.311Z,1090.90
2022-08-29T01:03:51.625Z,1094.07
2022-08-29T01:06:22.520Z,1088.97
2022-08-29T01:08:57.596Z,1089.10
2022-08-29T01:11:44.719Z,1095.30
2022-08-29T01:14:14.565Z,1093.27
2022-08-29T01:16:45.003Z,1086.03
2022-08-29T01:19:42.619Z,1091.43
2022-08-29T01:22:39.991Z,1086.63
2022-08-29T01:25:15.196Z,1089.97
2022-08-29T01:27:49.234Z,1086.53
2022-08-29T01:30:18.925Z,1090.20
2022-08-29T01:32:49.094Z,1088.50
2022-08-29T01:35:18.809Z,1089.23
2022-08-29T01:37:48.967Z,1084.47
2022-08-29T01:40:18.836Z,1093.17
2022-08-29T01:42:48.577Z,1088.60
2022-08-29T01:45:18.278Z,1093.13
2022-08-29T01:47:47.990Z,1081.07
2022-08-29T01:50:18.606Z,1090.63
2022-08-29T01:52:48.326Z,1093.20
2022-08-29T01:55:18.080Z,1087.27
2022-08-29T01:57:48.835Z,1086.53
2022-08-29T02:00:21.282Z,1085.80
2022-08-29T02:02:51.158Z,1084.27
2022-08-29T02:05:23.750Z,1088.50
2022-08-29T02:07:53.666Z,1092.93
2022-08-29T02:10:23.510Z,1083.60
2022-08-29T02:12:55.357Z,1088.37
2022-08-29T02:15:25.266Z,1086.00
2022-08-29T02:17:55.075Z,1084.57
2022-08-29T02:20:24.807Z,1087.40
2022-08-29T02:22:54.466Z,1094.77
2022-08-29T02:25:36.541Z,1092.90
2022-08-29T02:28:06.780Z,1094.83
2022-08-29T02:30:37.251Z,1083.83
2022-08-29T02:33:07.513Z,1082.77
2022-08-29T02:35:42.774Z,1088.87
2022-08-29T02:38:13.506Z,1088.37
2022-08-29T02:40:43.844Z,1088.37
2022-08-29T02:43:15.578Z,1087.83
2022-08-29T02:45:46.189Z,1084.23
2022-08-29T02:48:16.788Z,1090.23
2022-08-29T02:50:51.642Z,1088.47
2022-08-29T02:53:23.036Z,1082.77
2022-08-29T02:55:54.070Z,1090.27
2022-08-29T02:58:25.689Z,1086.83
2022-08-29T03:00:56.811Z,1094.13
2022-08-29T03:03:27.319Z,1084.53
2022-08-29T03:05:57.901Z,1092.60
2022-08-29T03:08:27.894Z,1089.73
2022-08-29T03:10:57.707Z,1082.53
2022-08-29T03:13:27.418Z,1084.47
2022-08-29T03:15:57.170Z,1086.27
2022-08-29T03:18:26.922Z,1084.97
2022-08-29T03:20:56.574Z,1096.83
2022-08-29T03:23:26.279Z,1085.40
2022-08-29T03:25:56.210Z,1085.77
2022-08-29T03:28:25.930Z,1093.07
2022-08-29T03:30:55.727Z,1090.67
2022-08-29T03:33:25.630Z,1089.17
2022-08-29T03:35:55.518Z,1086.10
2022-08-29T03:38:25.672Z,1090.33
2022-08-29T03:40:55.678Z,1088.47
2022-08-29T03:43:27.988Z,1090.70
2022-08-29T03:45:57.734Z,1087.83
2022-08-29T03:48:27.733Z,1082.83
2022-08-29T03:50:57.426Z,1088.37
2022-08-29T03:53:27.134Z,1090.57
2022-08-29T03:55:56.893Z,1089.80
2022-08-29T03:58:26.800Z,1085.83
2022-08-29T04:00:56.603Z,1086.97
2022-08-29T04:03:31.514Z,1079.90
2022-08-29T04:06:01.986Z,1090.60
2022-08-29T04:08:31.735Z,1082.43
2022-08-29T04:11:01.477Z,1091.40
2022-08-29T04:13:31.159Z,1088.50
2022-08-29T04:16:00.866Z,1090.53
2022-08-29T04:18:30.801Z,1091.80
2022-08-29T04:21:05.476Z,1089.37
2022-08-29T04:23:37.037Z,1083.90
2022-08-29T04:26:27.163Z,1088.33
2022-08-29T04:28:57.085Z,1095.87
2022-08-29T04:31:26.825Z,1094.37
2022-08-29T04:33:56.799Z,1089.80
2022-08-29T04:36:26.547Z,1093.57
2022-08-29T04:38:56.271Z,1091.23
2022-08-29T04:41:26.005Z,1093.57
2022-08-29T04:43:55.933Z,1095.60
2022-08-29T04:46:26.190Z,1094.20
2022-08-29T04:48:59.514Z,1089.37
2022-08-29T04:51:34.560Z,1097.73
2022-08-29T04:54:06.732Z,1089.33
2022-08-29T04:56:38.310Z,1093.17
2022-08-29T04:59:12.856Z,1098.77
2022-08-29T05:01:42.672Z,1088.97
2022-08-29T05:04:14.591Z,1093.43
2022-08-29T05:06:44.609Z,1092.60
2022-08-29T05:09:14.322Z,1097.93
2022-08-29T05:11:44.085Z,1086.17
2022-08-29T05:14:13.952Z,1096.00
2022-08-29T05:16:43.966Z,1094.00
2022-08-29T05:19:16.017Z,1095.77
2022-08-29T05:21:46.358Z,1091.83
2022-08-29T05:24:19.219Z,1097.83
2022-08-29T05:26:48.925Z,1096.13
2022-08-29T05:29:20.448Z,1096.70
2022-08-29T05:31:50.346Z,1089.30
2022-08-29T05:34:34.268Z,1091.70
2022-08-29T05:37:07.390Z,1097.10
2022-08-29T05:39:38.479Z,1091.77
2022-08-29T05:42:10.073Z,1086.50
2022-08-29T05:44:40.619Z,1093.53
2022-08-29T05:47:12.843Z,1095.90
2022-08-29T05:49:44.963Z,1097.67
2022-08-29T05:52:18.062Z,1099.53
2022-08-29T05:54:48.200Z,1095.37
2022-08-29T05:57:20.699Z,1101.30
2022-08-29T05:59:55.558Z,1099.80
2022-08-29T06:02:26.549Z,1095.50
2022-08-29T06:04:57.267Z,1092.57
2022-08-29T06:07:27.012Z,1088.17
2022-08-29T06:09:56.845Z,1088.90
2022-08-29T06:12:33.743Z,1092.23
2022-08-29T06:15:03.485Z,1096.50
2022-08-29T06:17:33.217Z,1087.90
2022-08-29T06:20:02.917Z,1087.17
2022-08-29T06:22:35.117Z,1090.13
2022-08-29T06:25:28.353Z,1099.33
2022-08-29T06:27:59.382Z,1088.83
2022-08-29T06:30:29.121Z,1095.60
2022-08-29T06:32:59.723Z,1095.00
2022-08-29T06:35:29.763Z,1092.40
2022-08-29T06:37:59.658Z,1096.20
2022-08-29T06:40:29.363Z,1085.57
2022-08-29T06:42:59.138Z,1094.80
2022-08-29T06:45:28.922Z,1092.90
2022-08-29T06:47:58.774Z,1086.13
2022-08-29T06:50:28.547Z,1086.07
2022-08-29T06:53:09.290Z,1098.17
2022-08-29T06:55:48.006Z,1086.87
2022-08-29T06:58:18.084Z,1092.67
2022-08-29T07:00:49.818Z,1089.37
2022-08-29T07:03:19.749Z,1097.33
2022-08-29T07:05:55.258Z,1093.90
2022-08-29T07:08:25.006Z,1086.10
2022-08-29T07:10:54.966Z,1092.47
2022-08-29T07:13:24.691Z,1089.63
2022-08-29T07:15:55.187Z,1091.47
2022-08-29T07:18:25.016Z,1090.23
2022-08-29T07:20:55.233Z,1089.50
2022-08-29T07:23:25.498Z,1095.87
2022-08-29T07:25:55.381Z,1090.90
2022-08-29T07:28:25.111Z,1092.43
2022-08-29T07:30:55.582Z,1096.13
2022-08-29T07:33:25.403Z,1094.03
2022-08-29T07:35:55.397Z,1093.97
2022-08-29T07:38:25.386Z,1094.27
2022-08-29T07:41:03.406Z,1091.63
2022-08-29T07:43:33.647Z,1100.67
2022-08-29T07:46:12.158Z,1098.00
2022-08-29T07:48:42.538Z,1091.43
2022-08-29T07:51:15.365Z,1096.47
2022-08-29T07:53:46.785Z,1094.30
2022-08-29T07:56:19.830Z,1091.27
2022-08-29T07:58:49.635Z,1098.90
2022-08-29T08:01:21.124Z,1103.73
2022-08-29T08:03:52.143Z,1093.53
2022-08-29T08:06:27.287Z,1095.33
2022-08-29T08:08:58.081Z,1099.40
2022-08-29T08:11:29.617Z,1105.03
2022-08-29T08:14:00.415Z,1099.00
2022-08-29T08:16:31.362Z,1101.53
2022-08-29T08:19:01.495Z,1100.37
2022-08-29T08:21:31.230Z,1093.37
2022-08-29T08:24:00.907Z,1101.97
2022-08-29T08:26:31.231Z,1099.60
2022-08-29T08:29:00.870Z,1106.57
2022-08-29T08:31:30.779Z,1101.17
2022-08-29T08:34:00.635Z,1107.43
2022-08-29T08:36:40.226Z,1104.23
2022-08-29T08:39:10.634Z,1106.30
2022-08-29T08:41:52.503Z,1105.53
2022-08-29T08:44:24.999Z,1101.97
2022-08-29T08:46:59.510Z,1191.45
2022-08-29T08:49:40.167Z,1122.53
2022-08-29T08:52:17.587Z,1114.70
2022-08-29T08:55:01.915Z,1113.50
2022-08-29T08:57:40.065Z,1105.50
2022-08-29T09:00:13.197Z,1113.20
2022-08-29T09:03:04.785Z,1105.83
2022-08-29T09:05:49.189Z,1106.13
2022-08-29T09:08:28.226Z,1110.03
2022-08-29T09:11:20.399Z,1101.13
2022-08-29T09:14:18.362Z,1119.27
2022-08-29T09:16:53.928Z,1105.57
2022-08-29T09:19:23.987Z,1114.33
2022-08-29T09:22:02.426Z,1109.63
2022-08-29T09:24:41.857Z,1113.97
2022-08-29T09:27:20.914Z,1117.10
2022-08-29T09:29:53.488Z,1118.17
2022-08-29T09:32:23.245Z,1123.20
2022-08-29T09:35:09.476Z,1126.63
2022-08-29T09:37:39.879Z,1118.40
2022-08-29T09:40:19.041Z,1125.57
2022-08-29T09:43:04.278Z,1127.17
2022-08-29T09:45:34.040Z,1126.63
2022-08-29T09:48:21.567Z,1116.80
2022-08-29T09:50:51.335Z,1127.73
2022-08-29T09:53:26.733Z,1139.63
2022-08-29T09:55:56.799Z,1135.47
2022-08-29T09:58:26.421Z,1137.53
2022-08-29T10:01:28.745Z,1133.73
2022-08-29T10:04:05.942Z,1131.70
2022-08-29T10:06:45.111Z,1132.53
2022-08-29T10:09:37.370Z,1137.77
2022-08-29T10:12:22.322Z,1135.40
2022-08-29T10:14:57.459Z,1144.67
2022-08-29T10:17:55.877Z,1144.70
2022-08-29T10:20:49.957Z,1144.50
2022-08-29T10:23:36.428Z,1144.83
2022-08-29T10:26:14.518Z,1136.83
2022-08-29T10:29:12.524Z,1140.70
2022-08-29T10:31:53.766Z,1135.60
2022-08-29T10:34:35.245Z,1148.50
2022-08-29T10:37:12.380Z,1150.33
2022-08-29T10:40:00.539Z,1146.80
2022-08-29T10:42:34.539Z,1145.00
2022-08-29T10:45:30.835Z,1147.67
2022-08-29T10:48:14.427Z,1143.30
2022-08-29T10:51:08.944Z,1142.43
2022-08-29T10:53:50.214Z,1143.17
2022-08-29T10:56:30.418Z,1148.77
2022-08-29T10:59:23.394Z,1150.20
2022-08-29T11:02:00.274Z,1146.97
2022-08-29T11:04:38.999Z,1149.67
2022-08-29T11:07:37.743Z,1163.20
2022-08-29T11:10:15.367Z,1161.57
2022-08-29T11:12:52.951Z,1165.50
2022-08-29T11:15:48.368Z,1164.30
2022-08-29T11:18:22.539Z,1168.03
2022-08-29T11:20:59.022Z,1164.73
2022-08-29T11:23:42.779Z,1166.13
2022-08-29T11:26:43.638Z,1170.57
2022-08-29T11:29:38.558Z,1174.97
2022-08-29T11:32:19.561Z,1170.90
2022-08-29T11:35:11.409Z,1177.37
2022-08-29T11:37:53.106Z,1185.10
2022-08-29T11:43:28.439Z,1170.83
2022-08-29T11:46:03.056Z,1175.13
2022-08-29T11:48:55.819Z,1171.37
2022-08-29T11:51:37.836Z,1175.40
2022-08-29T11:54:26.402Z,1178.53
2022-08-29T11:57:05.054Z,1166.20
2022-08-29T11:59:49.824Z,1164.60
2022-08-29T12:02:31.951Z,1167.90
2022-08-29T12:05:01.539Z,1171.43
2022-08-29T12:07:52.486Z,1167.90
2022-08-29T12:10:25.029Z,1168.17
2022-08-29T12:13:06.763Z,1164.37
2022-08-29T12:15:36.342Z,1173.53
2022-08-29T12:18:25.930Z,1176.30
2022-08-29T12:20:56.998Z,1182.30
2022-08-29T12:23:36.419Z,1186.97
2022-08-29T12:26:23.826Z,1191.00
2022-08-29T12:29:02.406Z,1184.17
2022-08-29T12:32:18.180Z,1191.20
2022-08-29T12:34:57.326Z,1188.90
2022-08-29T12:37:36.786Z,1194.13
2022-08-29T12:40:37.061Z,1201.53
2022-08-29T12:43:41.537Z,1204.07
2022-08-29T12:46:49.299Z,1202.27
2022-08-29T12:49:24.442Z,1204.10
2022-08-29T12:52:01.208Z,1202.70
2022-08-29T12:54:41.539Z,1202.13
2022-08-29T12:57:25.386Z,1203.30
2022-08-29T12:59:56.903Z,1201.03
2022-08-29T13:02:26.552Z,1196.60
2022-08-29T13:04:56.470Z,1190.67
2022-08-29T13:07:27.582Z,1189.70
2022-08-29T13:10:03.651Z,1185.47
2022-08-29T13:12:36.775Z,1194.57
2022-08-29T13:15:19.886Z,1190.20
2022-08-29T13:17:51.907Z,1194.37
2022-08-29T13:20:52.842Z,1191.73
2022-08-29T13:23:25.687Z,1193.07
2022-08-29T13:26:09.203Z,1187.53
2022-08-29T13:28:38.885Z,1191.50
2022-08-29T13:31:14.764Z,1196.10
2022-08-29T13:34:04.470Z,1198.77
2022-08-29T13:36:42.443Z,1206.87
2022-08-29T13:39:25.302Z,1219.57
2022-08-29T13:42:04.510Z,1220.27
2022-08-29T13:44:40.179Z,1224.87
2022-08-29T13:47:19.255Z,1236.33
2022-08-29T13:49:49.423Z,1228.73
2022-08-29T13:52:20.796Z,1229.80
2022-08-29T13:54:50.699Z,1228.10
2022-08-29T13:57:23.994Z,1237.77
2022-08-29T13:59:53.919Z,1238.60
2022-08-29T14:02:25.216Z,1235.10
2022-08-29T14:04:55.211Z,1241.97
2022-08-29T14:07:32.531Z,1241.10
2022-08-29T14:10:02.285Z,1244.17
2022-08-29T14:12:33.756Z,1249.47
2022-08-29T14:15:10.062Z,1256.80
2022-08-29T14:17:43.107Z,1255.00
2022-08-29T14:20:13.983Z,1246.20
2022-08-29T14:22:44.100Z,1265.23
2022-08-29T14:25:15.376Z,1260.37
2022-08-29T14:27:47.496Z,1272.57
2022-08-29T14:30:20.829Z,1275.13
2022-08-29T14:32:50.601Z,1275.47
2022-08-29T14:35:26.731Z,1276.93
2022-08-29T14:38:02.073Z,1277.83
2022-08-29T14:40:33.582Z,1269.97
2022-08-29T14:43:05.308Z,1280.20
2022-08-29T14:45:35.826Z,1274.23
2022-08-29T14:48:06.544Z,1280.77
2022-08-29T14:50:36.909Z,1282.53
2022-08-29T14:53:06.730Z,1284.17
2022-08-29T14:55:36.479Z,1279.97
2022-08-29T14:58:07.075Z,1279.60
2022-08-29T15:00:36.841Z,1278.03
2022-08-29T15:03:06.951Z,1283.17
2022-08-29T15:05:37.190Z,1279.77
2022-08-29T15:08:07.088Z,1291.93
2022-08-29T15:10:37.246Z,1283.23
2022-08-29T15:13:07.500Z,1288.60
2022-08-29T15:15:37.551Z,1290.50
2022-08-29T15:18:08.301Z,1299.07
2022-08-29T15:20:40.149Z,1296.40
2022-08-29T15:23:13.195Z,1291.30
2022-08-29T15:25:45.094Z,1292.43
2022-08-29T15:28:21.804Z,1289.60
2022-08-29T15:30:51.653Z,1292.80
2022-08-29T15:33:21.406Z,1288.47
2022-08-29T15:35:51.515Z,1293.83
2022-08-29T15:38:21.566Z,1303.30
2022-08-29T15:40:51.312Z,1296.17
2022-08-29T15:43:20.981Z,1297.77
2022-08-29T15:45:50.796Z,1300.60
2022-08-29T15:48:20.582Z,1306.23
2022-08-29T15:50:50.980Z,1309.33
2022-08-29T15:53:20.744Z,1320.73
2022-08-29T15:55:50.529Z,1325.83
2022-08-29T15:58:20.419Z,1329.43
2022-08-29T16:00:50.158Z,1320.47
2022-08-29T16:03:19.844Z,1323.60
2022-08-29T16:05:49.734Z,1306.40
2022-08-29T16:08:19.826Z,1307.37
2022-08-29T16:10:52.295Z,1300.27
2022-08-29T16:13:22.058Z,1308.27
2022-08-29T16:15:51.911Z,1311.63
2022-08-29T16:18:21.667Z,1316.33
2022-08-29T16:20:51.530Z,1310.60
2022-08-29T16:23:26.791Z,1313.60
2022-08-29T16:25:56.743Z,1304.87
2022-08-29T16:28:28.904Z,1296.87
2022-08-29T16:30:58.727Z,1288.23
2022-08-29T16:33:28.552Z,1279.93
2022-08-29T16:35:58.507Z,1273.33
2022-08-29T16:38:28.716Z,1267.33
2022-08-29T16:40:58.592Z,1258.63
2022-08-29T16:43:28.243Z,1245.80
2022-08-29T16:45:58.131Z,1235.23
2022-08-29T16:48:28.233Z,1229.97
2022-08-29T16:50:57.934Z,1223.50
2022-08-29T16:53:27.621Z,1216.40
2022-08-29T16:55:57.362Z,1217.70
2022-08-29T16:58:39.738Z,1213.70
2022-08-29T17:01:09.867Z,1284.75
2022-08-29T17:03:39.620Z,1214.57
2022-08-29T17:06:09.518Z,1206.50
2022-08-29T17:08:37.490Z,1206.07
2022-08-29T17:11:04.619Z,1194.00
2022-08-29T17:13:31.991Z,1192.17
2022-08-29T17:16:05.874Z,1183.00
2022-08-29T17:18:36.670Z,1187.87
2022-08-29T17:21:06.706Z,1186.17
2022-08-29T17:23:38.588Z,1186.47
2022-08-29T17:26:11.894Z,1175.53
2022-08-29T17:28:42.842Z,1169.27
2022-08-29T17:31:12.687Z,1161.57
2022-08-29T17:33:42.998Z,1172.53
2022-08-29T17:36:13.915Z,1156.77
2022-08-29T17:38:46.727Z,1154.03
2022-08-29T17:41:22.044Z,1159.60
2022-08-29T17:43:53.008Z,1160.73
2022-08-29T17:46:24.007Z,1164.47
2022-08-29T17:48:54.212Z,1154.23
2022-08-29T17:51:24.317Z,1150.97
2022-08-29T17:53:54.945Z,1145.00
2022-08-29T17:56:32.796Z,1152.97
2022-08-29T17:59:05.517Z,1140.57
2022-08-29T18:01:36.987Z,1150.67
2022-08-29T18:04:07.003Z,1145.27
2022-08-29T18:06:37.251Z,1140.37
2022-08-29T18:09:08.362Z,1143.17
2022-08-29T18:11:47.135Z,1132.30
2022-08-29T18:14:16.961Z,1133.43
2022-08-29T18:16:46.989Z,1134.40
2022-08-29T18:19:17.453Z,1135.40
2022-08-29T18:21:47.867Z,1131.53
2022-08-29T18:24:17.695Z,1126.80
2022-08-29T18:26:49.666Z,1127.33
2022-08-29T18:29:19.580Z,1120.33
2022-08-29T18:31:49.392Z,1130.53
